AirNav   Air Wisconsin Up To $57,000 Bonus
 
 814 users online  

92OR Falcon Point Heliport
West Linn, Oregon, USA

GOING TO WEST LINN?


FAA INFORMATION EFFECTIVE 05 DECEMBER 2019

Location

FAA Identifier: 92OR
Lat/Long: 45-20-11.4330N 122-39-53.3330W
45-20.190550N 122-39.888883W
45.3365092,-122.6648147
(estimated)
Elevation: 400 ft. / 122 m (estimated)
Variation: 19E (1985)
From city: 1 mile NE of WEST LINN, OR
Time zone: UTC -8 (UTC -7 during Daylight Saving Time)
Zip code: 97068

Heliport Operations

Heliport use: Private use. Permission required prior to landing
Activation date: 08/1987
Control tower: no
ARTCC: SEATTLE CENTER
FSS: MC MINNVILLE FLIGHT SERVICE STATION
Attendance: DAYLIGHT HOURS
Wind indicator: WINDMILL NW END OF RWY.
Segmented circle: no

Heliport Communications

WX ASOS at UAO (7 nm SW): PHONE 503-678-3011
WX ASOS at PDX (15 nm N): PHONE (503) 493-7687
WX ASOS at TTD (17 nm NE): 135.625 (503-492-2887)
WX ASOS at VUO (17 nm N): 135.125 (360-696-1280)
WX ASOS at HIO (17 nm NW): PHONE 503-640-2984

Nearby radio navigation aids

VOR radial/distance  VOR name  Freq  Var
UBGr073/13.3NEWBERG VOR/DME117.4021E
BTGr166/24.9BATTLE GROUND VORTAC116.6021E

 
NDB name  Hdg/Dist  Freq  Var  ID
BANKS122/23.835616EPND .--. -. -..

Heliport Services

Runway Information

Helipad H1

Dimensions: 220 x 140 ft. / 67 x 43 m
Surface: dirt
Traffic pattern: leftleft

Heliport Ownership and Management from official FAA records

Ownership: Privately-owned
Owner: EM & M LLC
25130 PETE'S MT. ROAD
WEST LINN, OR 97068
Phone (512) 944-6331
Manager: CHRISTOPHER HATTASCH
25130 PETE'S MT. ROAD
WEST LINN, OR 97068
Phone (512) 944-6331

Additional Remarks

FOR CD CTC PORTLAND APCH AT 503-493-7545.

Instrument Procedures

There are no published instrument procedures at 92OR.

Some nearby airports with instrument procedures:

KUAO - Aurora State Airport (7 nm SW)
KPDX - Portland International Airport (15 nm N)
KTTD - Portland-Troutdale Airport (17 nm NE)
KVUO - Pearson Field Airport (17 nm N)
KHIO - Portland-Hillsboro Airport (17 nm NW)
 
Loc | Ops | Rwys | IFR | FBO | Links
Com | Nav | Svcs | Stats | Notes
Area around 92OR (Falcon Point Heliport)
 
Road maps at: MapQuest Bing Google
 
Aerial photo
No photo
 
Sectional chart

 
Airport distance calculator
Flying to Falcon Point Heliport? Find the distance to fly.

From to 92OR

Sunrise and sunset
Times for 05-Dec-2019
 Local
(UTC-8)
 Zulu
(UTC)
Morning civil twilight07:0215:02
Sunrise07:3515:35
Sunset16:2700:27
Evening civil twilight17:0101:01

Current date and time
Zulu (UTC)  06-Dec-2019 06:39:16
Local (UTC-8)  05-Dec-2019 22:39:16
 
METAR
KUAO 
7nm SW 
060553Z AUTO 00000KT 10SM CLR 07/03 A2994 RMK AO2 SLP138 T00720028 10106 20067 57011
KPDX 
15nm N 
060553Z 00000KT 10SM SCT140 BKN200 07/03 A2997 RMK AO2 SLP147 T00670033 10094 20050 58012
KTTD 
17nm NE 
060553Z AUTO 09020G26KT 10SM CLR 07/02 A2996 RMK AO2 PK WND 09030/0525 SLP146 T00720017 10094 20072 58009
KVUO 
17nm N 
060553Z AUTO 00000KT 7SM CLR 03/01 A2996 RMK AO2 SLP145 T00330011 10106 20028 58012
KHIO 
18nm NW 
060610Z AUTO 26005KT 3SM BR CLR 04/04 A2995 RMK AO2 T00440039
TAF
KUAO 
7nm SW 
060531Z 0606/0706 02003KT P6SM SCT100 FM061500 02002KT 1 1/2SM BR OVC007 FM061800 02002KT 1 1/2SM BR OVC100 FM062100 02004KT P6SM OVC100 FM070000 36003KT P6SM -RA BKN050 OVC100
KPDX 
15nm N 
060531Z 0606/0706 VRB03KT P6SM SCT150 OVC200 FM061400 10005KT P6SM OVC100 FM070000 10009KT P6SM OVC050 FM070300 09009KT P6SM -RA OVC050
KTTD 
17nm NE 
060531Z 0606/0706 09020G27KT P6SM BKN250 FM061900 09016G23KT P6SM OVC100 FM062300 09017G24KT P6SM OVC050
KHIO 
18nm NW 
060531Z 0606/0706 00000KT 6SM BR OVC100 FM060900 36003KT 1 1/2SM BR OVC250 FM061500 03002KT 1/2SM FG OVC004 FM061800 05003KT 1/2SM FG OVC100 FM062100 00000KT 6SM BR OVC050 FM070000 10003KT 6SM -RA BR OVC050
NOTAMs
Click for the latest NOTAMs
NOTAMs are issued by the DoD/FAA and will open in a separate window not controlled by AirNav.

 

 
 

Would you like to see your business listed on this page?

 If your business provides an interesting product or service to pilots, flight crews, aircraft, or users of the Falcon Point Heliport, you should consider listing it here.  To start the listing process, click on the button below
 
Add a business
 

Other Pages about Falcon Point Heliport

Update a link
 
Copyright © AirNav, LLC. All rights reserved. Privacy Policy  Contact